Time;durP1;ratioP1;P1;durP2;ratioP2;P2;SDS_P1;SDS_P2;PMS_P1;PMS_P2;Temp;Humidity;BMP_temperature;BMP_pressure;BME280_temperature;BME280_humidity;BME280_pressure;Samples;Min_cycle;Max_cycle;Signal;HPM_P1;HPM_P2
2021/12/28 00:00:49;;;;;;;37.65;20.13;;;;;;;-0.09;100.00;99579.69;6354566;28;20051;-80
2021/12/28 00:03:50;;;;;;;37.03;18.90;;;;;;;-0.13;100.00;99578.91;6371434;28;20035;-80
2021/12/28 00:06:57;;;;;;;37.50;20.08;;;;;;;-0.17;100.00;99579.88;6371369;28;20035;-80
2021/12/28 00:10:06;;;;;;;;;;;;;;;-0.06;100.00;99580.47;6355772;27;20043;-80
2021/12/28 00:13:09;;;;;;;37.60;19.08;;;;;;;-0.24;100.00;99563.81;6370817;28;19919;-83
2021/12/28 00:16:29;;;;;;;37.17;19.02;;;;;;;-0.20;100.00;99562.00;6354987;28;20039;-83
2021/12/28 00:19:30;;;;;;;39.45;19.23;;;;;;;-0.01;100.00;99585.47;6355181;27;20089;-79
2021/12/28 00:22:31;;;;;;;39.55;18.80;;;;;;;0.05;100.00;99589.59;6358568;27;20485;-84
2021/12/28 00:25:35;;;;;;;35.78;17.60;;;;;;;-0.08;100.00;99592.47;6355783;27;20509;-79
2021/12/28 00:28:35;;;;;;;41.22;19.33;;;;;;;0.04;100.00;99603.31;6376401;27;20493;-83
2021/12/28 00:31:39;;;;;;;40.53;18.40;;;;;;;-0.09;100.00;99602.78;6374895;27;20042;-80
2021/12/28 00:34:41;;;;;;;39.40;18.38;;;;;;;-0.18;100.00;99598.72;6375733;27;20035;-80
2021/12/28 00:37:42;;;;;;;36.85;19.48;;;;;;;-0.04;100.00;99601.78;6357686;27;20043;-83
2021/12/28 00:40:43;;;;;;;37.85;17.25;;;;;;;-0.19;100.00;99601.31;6356888;27;20547;-84
2021/12/28 00:43:49;;;;;;;39.95;18.63;;;;;;;-0.28;100.00;99610.91;6372603;27;20039;-80
2021/12/28 00:46:50;;;;;;;44.00;18.38;;;;;;;-0.25;100.00;99597.16;6374935;27;20510;-83
2021/12/28 00:49:50;;;;;;;34.55;15.35;;;;;;;-0.24;100.00;99617.66;6374739;27;20399;-83
2021/12/28 00:52:52;;;;;;;39.53;17.50;;;;;;;-0.18;100.00;99611.53;6373799;27;20045;-80
2021/12/28 00:55:53;;;;;;;37.42;18.13;;;;;;;-0.26;100.00;99610.88;6374466;27;20183;-80
2021/12/28 00:58:53;;;;;;;48.17;18.17;;;;;;;-0.18;100.00;99623.53;6357284;27;20043;-83
2021/12/28 01:01:55;;;;;;;42.38;18.88;;;;;;;-0.25;100.00;99607.41;6374268;27;20043;-79
2021/12/28 01:04:55;;;;;;;32.55;15.85;;;;;;;-0.33;100.00;99632.41;6374101;27;20043;-80
2021/12/28 01:07:56;;;;;;;38.45;16.83;;;;;;;-0.19;100.00;99627.78;6375270;27;20123;-80
2021/12/28 01:10:58;;;;;;;37.40;17.52;;;;;;;-0.23;100.00;99631.31;6373543;27;20388;-80
2021/12/28 01:13:59;;;;;;;34.40;15.73;;;;;;;-0.18;100.00;99633.78;6373824;27;20506;-80
2021/12/28 01:16:59;;;;;;;30.17;15.18;;;;;;;-0.23;100.00;99627.03;6356787;27;20051;-80
2021/12/28 01:20:00;;;;;;;32.10;14.45;;;;;;;-0.34;100.00;99628.16;6373755;27;20168;-83
2021/12/28 01:23:01;;;;;;;34.42;15.63;;;;;;;-0.21;100.00;99637.25;6374802;27;20047;-80
2021/12/28 01:26:03;;;;;;;36.63;16.70;;;;;;;-0.21;100.00;99635.53;6373357;27;20096;-80
2021/12/28 01:29:04;;;;;;;41.87;17.03;;;;;;;-0.28;100.00;99625.47;6373705;27;20096;-80
2021/12/28 01:32:08;;;;;;;33.75;15.57;;;;;;;-0.27;100.00;99628.00;6372852;27;20325;-83
2021/12/28 01:35:13;;;;;;;39.47;16.70;;;;;;;-0.30;100.00;99630.63;6373419;27;20039;-80
2021/12/28 01:38:14;;;;;;;39.17;16.15;;;;;;;-0.30;100.00;99635.75;6374614;27;20039;-80
2021/12/28 01:41:15;;;;;;;41.95;15.38;;;;;;;-0.35;100.00;99622.19;6356258;27;20072;-81
2021/12/28 01:44:16;;;;;;;49.35;16.67;;;;;;;-0.41;100.00;99636.00;6372986;27;20125;-83
2021/12/28 01:47:17;;;;;;;32.72;15.98;;;;;;;-0.29;100.00;99631.44;6362190;27;20534;-80
2021/12/28 01:50:18;;;;;;;43.75;17.85;;;;;;;-0.30;100.00;99634.91;6349270;28;20031;-84
2021/12/28 01:53:19;;;;;;;45.67;16.95;;;;;;;-0.32;100.00;99622.13;6365260;27;20495;-83
2021/12/28 01:56:26;;;;;;;48.05;17.38;;;;;;;-0.35;100.00;99629.03;6373410;27;20039;-80
2021/12/28 01:59:26;;;;;;;39.88;16.88;;;;;;;-0.32;100.00;99622.13;6374633;27;20042;-80
2021/12/28 02:02:27;;;;;;;44.10;17.10;;;;;;;-0.17;100.00;99633.72;6346239;28;20068;-80
2021/12/28 02:05:28;;;;;;;56.15;18.08;;;;;;;-0.12;100.00;99621.66;6348908;28;20483;-84
2021/12/28 02:08:29;;;;;;;49.78;17.08;;;;;;;-0.11;100.00;99622.47;6347705;28;20039;-84
2021/12/28 02:11:30;;;;;;;48.33;16.75;;;;;;;-0.19;100.00;99632.91;6348497;28;20055;-81
2021/12/28 02:14:35;;;;;;;40.08;14.50;;;;;;;-0.23;100.00;99627.03;6347646;28;20047;-80
2021/12/28 02:17:36;;;;;;;57.10;15.15;;;;;;;-0.12;100.00;99634.47;6330859;28;20039;-83
2021/12/28 02:20:38;;;;;;;42.78;15.43;;;;;;;-0.21;100.00;99617.59;6330583;28;20047;-80
2021/12/28 02:23:39;;;;;;;51.97;15.18;;;;;;;-0.27;100.00;99627.13;6347465;28;20039;-80
2021/12/28 02:26:40;;;;;;;43.33;16.88;;;;;;;-0.33;100.00;99615.31;6347306;28;20036;-83
2021/12/28 02:29:41;;;;;;;41.90;16.63;;;;;;;-0.28;100.00;99610.06;6313131;28;20054;-83
2021/12/28 02:32:44;;;;;;;50.22;17.63;;;;;;;-0.23;100.00;99615.91;6329794;28;20057;-84
2021/12/28 02:35:45;;;;;;;89.75;27.95;;;;;;;-0.18;100.00;99608.97;6347026;28;20043;-84
2021/12/28 02:38:47;;;;;;;81.88;16.63;;;;;;;-0.16;100.00;99611.50;6347057;28;20039;-80
2021/12/28 02:41:47;;;;;;;63.67;17.63;;;;;;;-0.16;100.00;99601.25;6347028;28;20044;-83
2021/12/28 02:45:02;;;;;;;81.55;16.20;;;;;;;-0.36;100.00;99609.41;6329610;28;20683;-82
2021/12/28 02:48:06;;;;;;;63.70;16.90;;;;;;;-0.29;100.00;99605.81;6348144;28;20503;-83
2021/12/28 02:51:11;;;;;;;58.05;15.80;;;;;;;-0.30;100.00;99599.00;6313017;28;20051;-80
2021/12/28 02:54:12;;;;;;;62.70;15.93;;;;;;;-0.29;100.00;99600.69;6348035;28;20061;-84
2021/12/28 02:57:13;;;;;;;74.25;15.55;;;;;;;-0.25;100.00;99600.59;6329912;28;20036;-80
2021/12/28 03:00:28;;;;;;;52.55;15.70;;;;;;;-0.25;100.00;99595.47;6332515;28;20064;-80
2021/12/28 03:03:31;;;;;;;60.72;14.10;;;;;;;-0.31;100.00;99587.06;6371885;27;20129;-83
2021/12/28 03:06:33;;;;;;;87.60;15.80;;;;;;;-0.32;100.00;99595.63;6373839;27;20475;-80
2021/12/28 03:09:35;;;;;;;86.20;16.27;;;;;;;-0.29;100.00;99588.72;6372502;27;20494;-84
2021/12/28 03:12:36;;;;;;;71.20;15.63;;;;;;;-0.18;100.00;99591.03;6355039;28;20087;-83
2021/12/28 03:15:38;;;;;;;51.10;15.57;;;;;;;-0.16;100.00;99588.44;6371906;27;20487;-80
2021/12/28 03:18:39;;;;;;;45.08;15.38;;;;;;;-0.12;100.00;99592.59;6354903;28;20039;-82
2021/12/28 03:21:41;;;;;;;75.22;16.50;;;;;;;-0.10;100.00;99578.03;6373174;27;20043;-80
2021/12/28 03:24:42;;;;;;;94.25;16.60;;;;;;;-0.07;100.00;99586.47;6371919;28;21125;-80
2021/12/28 03:27:44;;;;;;;87.88;16.83;;;;;;;-0.08;100.00;99583.94;6338125;28;20059;-80
2021/12/28 03:30:46;;;;;;;83.53;19.40;;;;;;;-0.06;100.00;99585.59;6349901;27;20075;-84
2021/12/28 03:33:49;;;;;;;69.38;17.33;;;;;;;-0.13;100.00;99571.22;6369486;28;20530;-84
2021/12/28 03:36:50;;;;;;;60.13;18.55;;;;;;;-0.02;100.00;99591.50;6371920;28;20035;-80
2021/12/28 03:39:51;;;;;;;79.07;15.55;;;;;;;-0.16;100.00;99601.25;6338230;28;20042;-84
2021/12/28 03:42:51;;;;;;;67.18;17.42;;;;;;;-0.21;100.00;99596.22;6337031;28;20043;-80
2021/12/28 03:45:52;;;;;;;61.15;16.58;;;;;;;0.02;100.00;99612.75;6371509;27;20036;-84
2021/12/28 03:48:54;;;;;;;57.47;16.17;;;;;;;-0.03;100.00;99600.88;6347428;28;20040;-84
2021/12/28 03:51:55;;;;;;;61.88;15.85;;;;;;;-0.09;100.00;99613.03;6347930;28;20040;-83
2021/12/28 03:54:56;;;;;;;53.03;15.60;;;;;;;-0.06;100.00;99607.84;6348153;28;20039;-80
2021/12/28 03:57:59;;;;;;;110.22;15.80;;;;;;;-0.14;100.00;99612.31;6350101;28;20051;-84
2021/12/28 04:01:03;;;;;;;61.70;13.38;;;;;;;-0.21;100.00;99604.78;6333630;28;20448;-84
2021/12/28 04:04:05;;;;;;;86.38;14.60;;;;;;;-0.18;100.00;99616.66;6333763;28;20039;-83
2021/12/28 04:07:09;;;;;;;62.15;17.38;;;;;;;-0.14;100.00;99609.75;6351395;28;20506;-84
2021/12/28 04:10:11;;;;;;;102.32;28.45;;;;;;;-0.17;100.00;99609.81;6351252;28;20296;-80
2021/12/28 04:13:12;;;;;;;131.15;36.53;;;;;;;-0.13;100.00;99608.84;6351060;28;20036;-80
2021/12/28 04:16:14;;;;;;;146.40;36.72;;;;;;;-0.10;100.00;99608.78;6316227;28;20062;-84
2021/12/28 04:19:15;;;;;;;90.22;18.27;;;;;;;-0.13;100.00;99607.13;6350119;28;20075;-80
2021/12/28 04:22:16;;;;;;;61.40;17.25;;;;;;;-0.06;100.00;99610.41;6358208;27;20505;-84
2021/12/28 04:25:18;;;;;;;69.03;17.90;;;;;;;-0.10;100.00;99612.19;6392463;27;20050;-83
2021/12/28 04:28:19;;;;;;;60.97;17.38;;;;;;;-0.15;100.00;99602.91;6375810;27;20053;-80
2021/12/28 04:31:20;;;;;;;68.07;16.17;;;;;;;-0.17;100.00;99604.69;6358241;27;20043;-80
2021/12/28 04:34:21;;;;;;;89.63;16.65;;;;;;;-0.13;100.00;99606.28;6376417;27;20043;-80
2021/12/28 04:37:22;;;;;;;95.68;16.90;;;;;;;-0.14;100.00;99609.75;6378776;27;20051;-80
2021/12/28 04:40:23;;;;;;;91.07;17.20;;;;;;;-0.10;100.00;99611.34;6358045;27;20059;-84
2021/12/28 04:43:24;;;;;;;69.18;16.27;;;;;;;-0.20;100.00;99605.59;6380709;27;20047;-84
2021/12/28 04:46:25;;;;;;;71.05;15.75;;;;;;;-0.14;100.00;99609.75;6358753;27;20560;-80
2021/12/28 04:49:27;;;;;;;86.90;17.02;;;;;;;-0.03;100.00;99618.00;6377725;27;20114;-84
2021/12/28 04:52:31;;;;;;;77.72;17.63;;;;;;;-0.17;100.00;99608.06;6377739;27;20046;-84
2021/12/28 04:55:31;;;;;;;64.18;16.95;;;;;;;-0.09;100.00;99613.03;6357415;27;20051;-84
2021/12/28 04:58:33;;;;;;;69.90;15.75;;;;;;;-0.13;100.00;99607.13;6375448;27;20063;-83
2021/12/28 05:01:36;;;;;;;67.90;15.70;;;;;;;-0.18;100.00;99603.84;6358344;27;20051;-80
2021/12/28 05:04:37;;;;;;;78.20;16.35;;;;;;;-0.22;100.00;99597.94;6358594;27;20463;-84
2021/12/28 05:07:38;;;;;;;98.00;17.42;;;;;;;-0.33;100.00;99599.94;6373738;27;20095;-83
2021/12/28 05:10:41;;;;;;;75.93;15.45;;;;;;;-0.29;100.00;99604.13;6374834;27;20058;-81
2021/12/28 05:13:42;;;;;;;;;;;;;;;-0.24;100.00;99609.13;6357614;27;20039;-83
2021/12/28 05:16:43;;;;;;;45.78;13.25;;;;;;;-0.28;100.00;99610.06;6375516;27;19919;-84
2021/12/28 05:19:44;;;;;;;69.10;14.38;;;;;;;-0.26;100.00;99605.75;6376398;27;20092;-83
2021/12/28 05:22:45;;;;;;;46.53;15.52;;;;;;;-0.29;100.00;99610.94;6357146;27;20448;-84
2021/12/28 05:25:45;;;;;;;59.47;15.98;;;;;;;-0.18;100.00;99606.41;6356841;27;20092;-83
2021/12/28 05:28:46;;;;;;;58.03;16.92;;;;;;;-0.30;100.00;99604.13;6356680;27;20135;-83
2021/12/28 05:31:47;;;;;;;61.83;16.70;;;;;;;-0.24;100.00;99604.00;6339607;27;20035;-81
2021/12/28 05:34:48;;;;;;;51.03;15.07;;;;;;;-0.21;100.00;99609.03;6374744;27;20035;-81
2021/12/28 05:37:49;;;;;;;80.78;16.10;;;;;;;-0.22;100.00;99607.38;6373497;27;20038;-84
2021/12/28 05:40:50;;;;;;;52.13;15.70;;;;;;;-0.11;100.00;99622.47;6356238;27;20071;-84
2021/12/28 05:43:50;;;;;;;68.30;15.82;;;;;;;-0.11;100.00;99622.47;6356377;27;20035;-84
2021/12/28 05:46:52;;;;;;;55.05;14.75;;;;;;;-0.10;100.00;99612.19;6341795;28;20483;-84
2021/12/28 05:49:52;;;;;;;58.33;15.32;;;;;;;-0.17;100.00;99605.50;6354052;27;20043;-81
2021/12/28 05:52:53;;;;;;;47.63;15.10;;;;;;;-0.18;100.00;99610.69;6356425;27;20043;-82
2021/12/28 05:55:54;;;;;;;56.67;16.55;;;;;;;-0.13;100.00;99612.25;6339347;27;20508;-84
2021/12/28 05:58:55;;;;;;;58.88;17.52;;;;;;;-0.18;100.00;99611.53;6356202;27;20095;-84
2021/12/28 06:01:56;;;;;;;46.78;14.60;;;;;;;-0.32;100.00;99601.59;6373368;27;20043;-84
2021/12/28 06:04:57;;;;;;;62.97;16.83;;;;;;;-0.15;100.00;99628.56;6374528;27;20064;-81
2021/12/28 06:07:58;;;;;;;46.90;14.07;;;;;;;-0.28;100.00;99625.47;6331034;28;20039;-80
2021/12/28 06:11:00;;;;;;;51.38;16.63;;;;;;;-0.25;100.00;99617.69;6347877;28;20502;-81
2021/12/28 06:14:01;;;;;;;79.20;17.38;;;;;;;-0.23;100.00;99636.44;6348081;28;20047;-81
2021/12/28 06:17:02;;;;;;;97.97;19.10;;;;;;;-0.40;100.00;99639.41;6348213;28;20036;-80
2021/12/28 06:20:04;;;;;;;63.30;18.38;;;;;;;-0.25;100.00;99641.63;6313814;28;20046;-81
2021/12/28 06:23:05;;;;;;;58.83;18.35;;;;;;;-0.19;100.00;99632.91;6347789;28;20096;-80
2021/12/28 06:26:06;;;;;;;69.22;23.10;;;;;;;-0.12;100.00;99646.47;6347748;28;20044;-81
2021/12/28 06:29:08;;;;;;;49.33;18.20;;;;;;;-0.10;100.00;99637.84;6330914;28;20118;-83
2021/12/28 06:32:09;;;;;;;53.28;18.90;;;;;;;-0.06;100.00;99646.31;6347406;28;20035;-81
2021/12/28 06:35:10;;;;;;;55.38;18.30;;;;;;;-0.01;100.00;99647.03;6347543;28;20473;-83
2021/12/28 06:38:11;;;;;;;58.20;19.40;;;;;;;-0.09;100.00;99651.50;6330417;28;20092;-83
2021/12/28 06:41:12;;;;;;;56.95;17.92;;;;;;;-0.11;100.00;99661.78;6373516;27;20043;-83
2021/12/28 06:44:13;;;;;;;54.75;17.92;;;;;;;-0.11;100.00;99656.66;6375356;27;20032;-83
2021/12/28 06:47:14;;;;;;;62.00;19.92;;;;;;;-0.02;100.00;99653.06;6372928;27;20380;-81
2021/12/28 06:50:15;;;;;;;63.65;19.80;;;;;;;0.05;100.00;99659.72;6372555;27;20047;-81
2021/12/28 06:53:17;;;;;;;53.17;18.75;;;;;;;-0.02;100.00;99655.63;6373200;27;20101;-81
2021/12/28 06:56:17;;;;;;;51.97;18.48;;;;;;;-0.03;100.00;99659.06;6374553;27;20035;-80
2021/12/28 06:59:18;;;;;;;59.45;20.63;;;;;;;-0.12;100.00;99637.03;6355140;27;20042;-83
2021/12/28 07:02:19;;;;;;;60.80;20.42;;;;;;;-0.11;100.00;99646.41;6372456;27;20073;-80
2021/12/28 07:05:20;;;;;;;72.88;21.38;;;;;;;-0.12;100.00;99652.44;6355083;27;20035;-81
2021/12/28 07:08:21;;;;;;;67.75;21.20;;;;;;;-0.12;100.00;99631.06;6372793;27;20035;-83
2021/12/28 07:11:22;;;;;;;60.72;19.80;;;;;;;-0.08;100.00;99638.66;6366243;27;20047;-80
2021/12/28 07:14:23;;;;;;;61.08;20.08;;;;;;;-0.01;100.00;99639.34;6347889;27;20043;-84
2021/12/28 07:17:26;;;;;;;76.95;24.73;;;;;;;0.03;100.00;99647.81;6356758;28;20465;-83
2021/12/28 07:20:27;;;;;;;155.60;60.70;;;;;;;0.07;100.00;99641.72;6345849;28;20051;-83
2021/12/28 07:23:30;;;;;;;69.18;29.83;;;;;;;0.11;100.00;99648.47;6345842;28;20175;-82
2021/12/28 07:26:31;;;;;;;61.58;19.75;;;;;;;0.07;100.00;99651.97;6346939;28;20047;-81
2021/12/28 07:29:33;;;;;;;54.08;19.92;;;;;;;0.11;100.00;99643.34;6348086;28;20449;-81
2021/12/28 07:32:35;;;;;;;84.72;24.33;;;;;;;0.09;100.00;99645.94;6352243;28;20036;-80
2021/12/28 07:35:35;;;;;;;70.80;23.10;;;;;;;0.09;100.00;99655.34;6351417;28;20161;-81
2021/12/28 07:38:36;;;;;;;55.92;19.50;;;;;;;0.17;100.00;99666.28;6342650;28;20445;-81
2021/12/28 07:41:37;;;;;;;69.05;21.63;;;;;;;0.21;100.00;99657.63;6334939;28;20174;-81
2021/12/28 07:44:38;;;;;;;76.57;31.48;;;;;;;0.20;100.00;99654.19;6345096;27;20051;-83
2021/12/28 07:47:41;;;;;;;67.00;23.67;;;;;;;0.32;100.00;99662.47;6376687;27;20088;-81
2021/12/28 07:50:42;;;;;;;59.08;19.67;;;;;;;0.34;100.00;99651.28;6350381;28;20040;-84
2021/12/28 07:53:43;;;;;;;66.32;24.55;;;;;;;0.30;100.00;99659.09;6341961;27;20031;-81
2021/12/28 07:56:44;;;;;;;62.00;22.52;;;;;;;0.39;100.00;99664.00;6376171;27;20182;-84
2021/12/28 07:59:45;;;;;;;67.93;22.83;;;;;;;0.35;100.00;99662.38;6358737;27;20054;-82
2021/12/28 08:02:47;;;;;;;64.63;25.00;;;;;;;0.47;100.00;99666.38;6376163;27;20054;-82
2021/12/28 08:05:47;;;;;;;75.03;29.98;;;;;;;0.46;100.00;99668.09;6376050;27;20047;-81
2021/12/28 08:08:48;;;;;;;60.08;20.73;;;;;;;0.49;100.00;99667.16;6375793;27;20092;-82
2021/12/28 08:11:49;;;;;;;68.80;22.75;;;;;;;0.44;100.00;99663.91;6369403;27;20050;-83
2021/12/28 08:14:50;;;;;;;59.42;20.92;;;;;;;0.49;100.00;99673.13;6363295;27;20035;-81
2021/12/28 08:17:51;;;;;;;67.57;24.15;;;;;;;0.56;100.00;99671.28;6377441;27;20042;-83
2021/12/28 08:20:52;;;;;;;60.30;23.92;;;;;;;0.56;100.00;99672.13;6376176;27;20063;-82
2021/12/28 08:23:53;;;;;;;77.07;22.45;;;;;;;0.52;100.00;99680.78;6355839;27;20050;-83
2021/12/28 08:26:54;;;;;;;72.18;26.08;;;;;;;0.42;100.00;99687.03;6367739;27;20471;-82
2021/12/28 08:29:55;;;;;;;70.93;24.42;;;;;;;0.47;100.00;99672.34;6347125;27;20138;-83
2021/12/28 08:32:55;;;;;;;74.38;26.48;;;;;;;0.57;100.00;99683.22;6333426;28;20100;-83
2021/12/28 08:35:56;;;;;;;61.22;23.83;;;;;;;0.51;100.00;99686.78;6334462;28;20047;-82
2021/12/28 08:38:57;;;;;;;63.33;23.17;;;;;;;0.66;100.00;99684.69;6350593;28;20089;-83
2021/12/28 08:41:58;;;;;;;83.40;24.83;;;;;;;0.53;100.00;99685.00;6388077;27;20042;-82
2021/12/28 08:44:59;;;;;;;68.45;23.88;;;;;;;0.42;100.00;99687.03;6378262;27;20410;-83
2021/12/28 08:48:00;;;;;;;66.18;22.60;;;;;;;0.48;100.00;99689.44;6357527;27;20448;-82
2021/12/28 08:51:01;;;;;;;74.03;23.88;;;;;;;0.55;100.00;99696.09;6355303;27;20031;-82
2021/12/28 08:54:02;;;;;;;69.63;23.98;;;;;;;0.59;100.00;99696.88;6354072;27;20113;-83
2021/12/28 08:57:03;;;;;;;65.38;23.98;;;;;;;0.59;100.00;99691.72;6350539;28;20040;-83
2021/12/28 09:00:11;;;;;;;61.42;22.23;;;;;;;0.66;100.00;99700.09;6331671;28;20039;-82
2021/12/28 09:03:12;;;;;;;69.72;24.60;;;;;;;0.64;100.00;99704.44;6350032;28;20046;-82
2021/12/28 09:06:13;;;;;;;71.43;29.83;;;;;;;0.70;100.00;99701.72;6354742;27;20094;-82
2021/12/28 09:09:14;;;;;;;71.10;26.00;;;;;;;0.67;100.00;99697.50;6375988;27;20389;-82
2021/12/28 09:12:15;;;;;;;57.50;21.95;;;;;;;0.65;100.00;99694.13;6356613;27;20043;-82
2021/12/28 09:15:16;;;;;;;65.75;23.08;;;;;;;0.75;100.00;99699.88;6373819;27;20046;-82
2021/12/28 09:18:17;;;;;;;73.47;28.67;;;;;;;0.72;100.00;99692.25;6373641;27;20051;-82
2021/12/28 09:21:18;;;;;;;66.25;25.33;;;;;;;0.77;100.00;99693.81;6373416;27;20130;-82
2021/12/28 09:24:19;;;;;;;65.53;24.77;;;;;;;0.74;100.00;99699.03;6374742;27;20035;-81
2021/12/28 09:27:20;;;;;;;89.13;34.85;;;;;;;0.80;100.00;99698.00;6339479;27;20042;-82
2021/12/28 09:30:21;;;;;;;70.20;27.35;;;;;;;0.75;100.00;99687.03;6408107;27;20060;-82
2021/12/28 09:33:24;;;;;;;74.00;28.98;;;;;;;0.74;100.00;99688.78;6373258;27;20398;-80
2021/12/28 09:36:26;;;;;;;74.82;28.92;;;;;;;0.83;100.00;99697.13;6373379;27;20046;-80
2021/12/28 09:39:28;;;;;;;84.88;35.75;;;;;;;0.80;100.00;99698.88;6367053;27;20089;-83
2021/12/28 09:42:29;;;;;;;;;;;;;;;0.73;100.00;99689.63;6359183;27;20043;-82
2021/12/28 09:45:30;;;;;;;60.25;21.35;;;;;;;0.76;100.00;99691.28;6352367;27;19926;-79
2021/12/28 09:48:32;;;;;;;56.33;21.58;;;;;;;0.78;100.00;99692.94;6371234;27;20039;-80
2021/12/28 09:51:33;;;;;;;74.32;27.60;;;;;;;0.80;100.00;99687.75;6373087;27;20452;-81
2021/12/28 09:54:34;;;;;;;81.82;31.63;;;;;;;0.80;100.00;99685.19;6356436;27;20067;-79
2021/12/28 09:57:35;;;;;;;66.47;23.07;;;;;;;0.83;100.00;99679.13;6371133;27;20046;-82
2021/12/28 10:00:36;;;;;;;66.30;24.65;;;;;;;0.82;100.00;99683.41;6372570;27;20310;-82
2021/12/28 10:03:37;;;;;;;70.70;26.08;;;;;;;0.85;100.00;99667.94;6373186;27;20697;-82
2021/12/28 10:06:39;;;;;;;65.30;24.20;;;;;;;0.82;100.00;99665.44;6373645;27;20118;-79
2021/12/28 10:09:40;;;;;;;62.72;23.50;;;;;;;0.83;100.00;99663.72;6348918;27;20162;-82
2021/12/28 10:12:44;;;;;;;58.70;23.25;;;;;;;0.90;100.00;99678.06;6354263;27;20051;-79
2021/12/28 10:15:47;;;;;;;88.38;34.80;;;;;;;0.86;100.00;99673.91;6383444;27;20035;-79
2021/12/28 10:18:48;;;;;;;169.48;51.70;;;;;;;0.89;100.00;99666.97;6381725;27;20039;-80
2021/12/28 10:21:49;;;;;;;77.97;28.70;;;;;;;0.82;100.00;99662.84;6367924;27;20058;-79
2021/12/28 10:25:09;;;;;;;192.27;63.13;;;;;;;0.74;100.00;99675.06;6385190;27;20062;-80
2021/12/28 10:28:28;;;;;;;120.53;40.75;;;;;;;0.89;100.00;99671.25;6381667;27;20090;-80
2021/12/28 10:31:29;;;;;;;72.72;27.40;;;;;;;0.84;100.00;99666.22;6384045;27;20465;-83
2021/12/28 10:34:30;;;;;;;105.55;39.13;;;;;;;0.91;100.00;99660.06;6384926;27;20035;-82
2021/12/28 10:37:35;;;;;;;112.25;44.17;;;;;;;0.96;100.00;99654.78;6357212;27;20454;-83
2021/12/28 10:40:57;;;;;;;106.55;37.42;;;;;;;0.96;100.00;99652.22;6371380;27;20042;-83
2021/12/28 10:43:58;;;;;;;93.60;33.80;;;;;;;0.98;100.00;99661.56;6369668;27;20611;-79
2021/12/28 10:47:27;;;;;;;96.15;40.17;;;;;;;0.99;100.00;99663.25;6378013;27;20027;-82
2021/12/28 10:50:36;;;;;;;78.20;32.28;;;;;;;1.01;100.00;99668.34;6371536;27;20129;-83
2021/12/28 10:54:02;;;;;;;64.75;24.88;;;;;;;1.03;100.00;99661.44;6371515;27;20043;-83
2021/12/28 10:57:03;;;;;;;57.22;24.88;;;;;;;0.99;100.00;99663.25;6370789;27;20122;-82
2021/12/28 11:00:43;;;;;;;54.90;23.58;;;;;;;1.02;100.00;99657.19;6353092;27;20043;-83
2021/12/28 11:03:47;;;;;;;58.95;21.95;;;;;;;0.93;100.00;99654.88;6301929;27;20044;-83
2021/12/28 11:06:52;;;;;;;58.28;24.65;;;;;;;0.97;100.00;99639.34;6373072;27;20482;-83
2021/12/28 11:10:01;;;;;;;52.33;21.75;;;;;;;0.96;100.00;99647.91;6380577;27;20031;-82
2021/12/28 11:13:03;;;;;;;53.53;22.45;;;;;;;0.99;100.00;99642.69;6382852;27;20043;-82
2021/12/28 11:16:07;;;;;;;60.57;25.20;;;;;;;1.00;100.00;99633.25;6380370;27;20487;-83
2021/12/28 11:19:10;;;;;;;73.30;26.20;;;;;;;0.97;100.00;99639.34;6380092;27;20042;-82
2021/12/28 11:22:11;;;;;;;;;;;;;;;1.04;100.00;99640.00;6380003;28;20051;-82
2021/12/28 11:25:19;;;;;;;44.40;18.80;;;;;;;1.03;100.00;99637.47;6362319;28;19947;-82
2021/12/28 11:28:22;;;;;;;48.97;20.63;;;;;;;1.02;100.00;99640.94;6380586;28;20107;-82
2021/12/28 11:31:27;;;;;;;49.97;19.70;;;;;;;1.00;100.00;99639.22;6380868;27;20491;-83
2021/12/28 11:34:37;;;;;;;42.55;16.70;;;;;;;1.06;100.00;99650.22;6379115;27;20043;-82
2021/12/28 11:37:38;;;;;;;41.42;16.80;;;;;;;0.95;100.00;99656.50;6379113;28;20494;-83
2021/12/28 11:40:39;;;;;;;35.70;16.60;;;;;;;1.02;100.00;99646.91;6381801;27;20122;-83
2021/12/28 11:43:43;;;;;;;34.45;16.08;;;;;;;1.02;100.00;99648.63;6363178;28;20376;-83
2021/12/28 11:46:45;;;;;;;42.58;17.77;;;;;;;1.03;100.00;99643.47;6356103;28;20058;-84
2021/12/28 11:49:47;;;;;;;42.70;20.00;;;;;;;1.04;100.00;99624.56;6370333;28;20073;-80
2021/12/28 11:53:11;;;;;;;40.30;19.85;;;;;;;1.02;100.00;99622.94;6373071;27;20401;-81
2021/12/28 12:00:11;;;;;;;44.30;18.70;;;;;;;0.94;100.00;99616.28;6372089;28;20043;-81
2021/12/28 12:03:39;;;;;;;;;;;;;;;0.93;100.00;99616.34;6371512;28;20065;-83
2021/12/28 12:07:09;;;;;;;40.42;17.90;;;;;;;0.97;100.00;99608.50;6367279;28;19923;-83
2021/12/28 12:10:16;;;;;;;52.67;20.88;;;;;;;1.00;100.00;99602.44;6370862;28;20050;-84
2021/12/28 12:13:17;;;;;;;45.20;19.67;;;;;;;1.02;100.00;99602.38;6372241;27;20042;-81
2021/12/28 12:16:18;;;;;;;46.50;19.45;;;;;;;1.03;100.00;99591.22;6373829;27;20039;-81
2021/12/28 12:19:51;;;;;;;47.22;20.55;;;;;;;1.00;100.00;99589.56;6358630;27;20394;-84
2021/12/28 12:22:55;;;;;;;;;;;;;;;0.95;100.00;99582.00;6320893;27;20107;-82
2021/12/28 12:26:01;;;;;;;42.58;17.45;;;;;;;0.95;100.00;99583.75;6375875;27;19946;-84
2021/12/28 12:29:17;;;;;;;40.55;17.08;;;;;;;0.94;100.00;99571.78;6377165;27;20039;-84
2021/12/28 12:33:01;;;;;;;44.42;18.42;;;;;;;0.95;100.00;99560.63;6375783;27;20497;-81
2021/12/28 12:36:08;;;;;;;46.50;18.85;;;;;;;0.98;100.00;99556.22;6364837;27;20424;-83
2021/12/28 12:39:10;;;;;;;53.13;19.80;;;;;;;0.93;100.00;99550.38;6375648;27;20147;-81
2021/12/28 12:42:12;;;;;;;45.03;18.80;;;;;;;0.97;100.00;99554.56;6375204;27;20668;-81
2021/12/28 12:45:13;;;;;;;45.22;19.42;;;;;;;0.93;100.00;99547.81;6375107;27;20047;-81
2021/12/28 12:48:52;;;;;;;42.50;17.52;;;;;;;0.98;100.00;99545.09;6358474;27;20133;-83
2021/12/28 12:52:01;;;;;;;40.65;16.20;;;;;;;1.03;100.00;99550.09;6375061;27;20107;-81
2021/12/28 12:55:05;;;;;;;43.50;17.67;;;;;;;1.04;100.00;99539.78;6357981;27;20043;-81
2021/12/28 12:58:16;;;;;;;39.05;17.60;;;;;;;1.07;100.00;99543.97;6375107;27;20047;-81
2021/12/28 13:01:37;;;;;;;41.22;17.75;;;;;;;1.11;100.00;99531.03;6376127;27;20490;-81
2021/12/28 13:04:40;;;;;;;48.65;19.50;;;;;;;1.08;100.00;99532.84;6357655;27;20142;-83
2021/12/28 13:07:42;;;;;;;43.95;17.90;;;;;;;1.04;100.00;99536.38;6374890;27;20081;-83
2021/12/28 13:10:42;;;;;;;42.38;18.95;;;;;;;1.06;100.00;99527.72;6374700;27;20406;-83
2021/12/28 13:13:48;;;;;;;51.17;22.55;;;;;;;0.99;100.00;99542.50;6357551;27;20050;-84
2021/12/28 13:17:14;;;;;;;55.95;23.70;;;;;;;0.91;100.00;99535.91;6375982;27;20039;-80
2021/12/28 13:20:34;;;;;;;50.88;22.23;;;;;;;0.82;100.00;99554.16;6371582;27;20448;-80
2021/12/28 13:23:36;;;;;;;80.10;39.30;;;;;;;0.82;100.00;99539.56;6374196;27;20043;-80
2021/12/28 13:26:47;;;;;;;64.75;28.83;;;;;;;0.89;100.00;99538.53;6340588;27;20039;-81
2021/12/28 13:29:49;;;;;;;64.38;26.35;;;;;;;0.85;100.00;99529.22;6373079;27;20502;-81
2021/12/28 13:32:53;;;;;;;64.85;28.65;;;;;;;0.87;100.00;99536.91;6373959;27;20480;-84
2021/12/28 13:35:56;;;;;;;55.35;23.63;;;;;;;0.89;100.00;99522.28;6374069;27;20054;-81
2021/12/28 13:39:04;;;;;;;;;;;;;;;0.84;100.00;99536.97;6347162;27;20047;-83
2021/12/28 13:42:05;;;;;;;51.33;19.10;;;;;;;0.85;100.00;99534.38;6370619;27;20299;-80
2021/12/28 13:45:13;;;;;;;55.63;22.33;;;;;;;0.91;100.00;99535.91;6372941;27;20035;-83
2021/12/28 13:48:36;;;;;;;68.18;25.77;;;;;;;0.92;100.00;99522.16;6357724;27;20059;-80
2021/12/28 13:51:36;;;;;;;74.72;29.23;;;;;;;0.99;100.00;99531.38;6372687;27;20039;-80
2021/12/28 13:54:37;;;;;;;75.70;32.47;;;;;;;0.98;100.00;99524.56;6374264;27;20043;-83
2021/12/28 13:57:39;;;;;;;65.85;27.77;;;;;;;0.91;100.00;99517.94;6355906;27;20060;-80
2021/12/28 14:00:40;;;;;;;55.60;24.70;;;;;;;0.97;100.00;99510.88;6372946;27;20074;-81
2021/12/28 14:03:42;;;;;;;62.28;22.35;;;;;;;0.89;100.00;99509.44;6372498;27;20039;-81